sensor_id;sensor_type;location;lat;lon;timestamp;P1;durP1;ratioP1;P2;durP2;ratioP2
79064;SDS011;68469;51.502;7.462;2023-06-10T00:01:53;7.88;;;5.90;;
79064;SDS011;68469;51.502;7.462;2023-06-10T00:04:23;9.02;;;5.55;;
79064;SDS011;68469;51.502;7.462;2023-06-10T00:06:48;6.97;;;6.28;;
79064;SDS011;68469;51.502;7.462;2023-06-10T00:09:14;7.82;;;6.32;;
79064;SDS011;68469;51.502;7.462;2023-06-10T00:11:40;8.15;;;6.20;;
79064;SDS011;68469;51.502;7.462;2023-06-10T00:14:06;8.48;;;6.25;;
79064;SDS011;68469;51.502;7.462;2023-06-10T00:16:32;8.38;;;6.20;;
79064;SDS011;68469;51.502;7.462;2023-06-10T00:18:59;8.18;;;6.10;;
79064;SDS011;68469;51.502;7.462;2023-06-10T00:21:28;8.80;;;6.43;;
79064;SDS011;68469;51.502;7.462;2023-06-10T00:24:05;7.25;;;6.13;;
79064;SDS011;68469;51.502;7.462;2023-06-10T00:26:32;8.70;;;5.97;;
79064;SDS011;68469;51.502;7.462;2023-06-10T00:28:58;6.60;;;5.82;;
79064;SDS011;68469;51.502;7.462;2023-06-10T00:31:24;8.00;;;6.30;;
79064;SDS011;68469;51.502;7.462;2023-06-10T00:33:51;7.90;;;6.20;;
79064;SDS011;68469;51.502;7.462;2023-06-10T00:36:17;8.80;;;6.45;;
79064;SDS011;68469;51.502;7.462;2023-06-10T00:38:43;7.72;;;6.35;;
79064;SDS011;68469;51.502;7.462;2023-06-10T00:41:08;7.55;;;6.03;;
79064;SDS011;68469;51.502;7.462;2023-06-10T00:43:34;8.27;;;6.65;;
79064;SDS011;68469;51.502;7.462;2023-06-10T00:46:00;10.05;;;6.70;;
79064;SDS011;68469;51.502;7.462;2023-06-10T00:48:26;6.70;;;6.03;;
79064;SDS011;68469;51.502;7.462;2023-06-10T00:50:52;7.88;;;6.18;;
79064;SDS011;68469;51.502;7.462;2023-06-10T00:53:18;8.60;;;6.72;;
79064;SDS011;68469;51.502;7.462;2023-06-10T00:55:45;7.07;;;6.38;;
79064;SDS011;68469;51.502;7.462;2023-06-10T00:58:12;7.50;;;6.32;;
79064;SDS011;68469;51.502;7.462;2023-06-10T01:00:38;11.43;;;6.90;;
79064;SDS011;68469;51.502;7.462;2023-06-10T01:03:03;11.13;;;7.03;;
79064;SDS011;68469;51.502;7.462;2023-06-10T01:05:33;8.60;;;7.10;;
79064;SDS011;68469;51.502;7.462;2023-06-10T01:08:03;8.38;;;7.35;;
79064;SDS011;68469;51.502;7.462;2023-06-10T01:10:55;8.45;;;6.90;;
79064;SDS011;68469;51.502;7.462;2023-06-10T01:13:24;10.02;;;6.97;;
79064;SDS011;68469;51.502;7.462;2023-06-10T01:15:53;9.40;;;7.95;;
79064;SDS011;68469;51.502;7.462;2023-06-10T01:18:21;9.00;;;6.63;;
79064;SDS011;68469;51.502;7.462;2023-06-10T01:20:47;9.25;;;7.05;;
79064;SDS011;68469;51.502;7.462;2023-06-10T01:23:13;12.50;;;7.68;;
79064;SDS011;68469;51.502;7.462;2023-06-10T01:25:41;11.52;;;7.53;;
79064;SDS011;68469;51.502;7.462;2023-06-10T01:28:32;11.70;;;7.10;;
79064;SDS011;68469;51.502;7.462;2023-06-10T01:31:13;8.90;;;6.97;;
79064;SDS011;68469;51.502;7.462;2023-06-10T01:33:43;7.82;;;7.03;;
79064;SDS011;68469;51.502;7.462;2023-06-10T01:36:12;10.10;;;7.75;;
79064;SDS011;68469;51.502;7.462;2023-06-10T01:38:42;9.25;;;7.22;;
79064;SDS011;68469;51.502;7.462;2023-06-10T01:41:12;9.90;;;8.20;;
79064;SDS011;68469;51.502;7.462;2023-06-10T01:43:40;11.13;;;7.68;;
79064;SDS011;68469;51.502;7.462;2023-06-10T01:46:08;10.43;;;8.48;;
79064;SDS011;68469;51.502;7.462;2023-06-10T01:48:34;13.10;;;8.35;;
79064;SDS011;68469;51.502;7.462;2023-06-10T01:51:00;10.10;;;8.27;;
79064;SDS011;68469;51.502;7.462;2023-06-10T01:53:26;12.85;;;8.57;;
79064;SDS011;68469;51.502;7.462;2023-06-10T01:55:51;12.70;;;8.27;;
79064;SDS011;68469;51.502;7.462;2023-06-10T01:58:17;9.63;;;8.63;;
79064;SDS011;68469;51.502;7.462;2023-06-10T02:00:42;12.57;;;8.77;;
79064;SDS011;68469;51.502;7.462;2023-06-10T02:03:08;9.65;;;8.75;;
79064;SDS011;68469;51.502;7.462;2023-06-10T02:05:34;9.77;;;8.68;;
79064;SDS011;68469;51.502;7.462;2023-06-10T02:07:59;10.18;;;8.52;;
79064;SDS011;68469;51.502;7.462;2023-06-10T02:10:25;11.65;;;8.48;;
79064;SDS011;68469;51.502;7.462;2023-06-10T02:12:51;11.25;;;8.35;;
79064;SDS011;68469;51.502;7.462;2023-06-10T02:15:16;11.88;;;9.52;;
79064;SDS011;68469;51.502;7.462;2023-06-10T02:17:42;12.15;;;9.40;;
79064;SDS011;68469;51.502;7.462;2023-06-10T02:20:09;11.18;;;8.38;;
79064;SDS011;68469;51.502;7.462;2023-06-10T02:22:35;9.77;;;8.77;;
79064;SDS011;68469;51.502;7.462;2023-06-10T02:25:01;9.13;;;8.23;;
79064;SDS011;68469;51.502;7.462;2023-06-10T02:27:28;11.57;;;9.52;;
79064;SDS011;68469;51.502;7.462;2023-06-10T02:29:55;11.38;;;8.77;;
79064;SDS011;68469;51.502;7.462;2023-06-10T02:32:21;11.15;;;8.95;;
79064;SDS011;68469;51.502;7.462;2023-06-10T02:34:47;10.32;;;9.20;;
79064;SDS011;68469;51.502;7.462;2023-06-10T02:37:14;10.73;;;9.63;;
79064;SDS011;68469;51.502;7.462;2023-06-10T02:39:40;14.27;;;10.43;;
79064;SDS011;68469;51.502;7.462;2023-06-10T02:42:06;12.77;;;10.52;;
79064;SDS011;68469;51.502;7.462;2023-06-10T02:44:32;14.02;;;10.02;;
79064;SDS011;68469;51.502;7.462;2023-06-10T02:46:58;12.07;;;10.02;;
79064;SDS011;68469;51.502;7.462;2023-06-10T02:49:23;11.02;;;9.80;;
79064;SDS011;68469;51.502;7.462;2023-06-10T02:51:52;12.63;;;10.25;;
79064;SDS011;68469;51.502;7.462;2023-06-10T02:54:19;15.18;;;11.18;;
79064;SDS011;68469;51.502;7.462;2023-06-10T02:56:45;12.45;;;10.15;;
79064;SDS011;68469;51.502;7.462;2023-06-10T02:59:10;11.70;;;10.50;;
79064;SDS011;68469;51.502;7.462;2023-06-10T03:01:36;20.58;;;11.65;;
79064;SDS011;68469;51.502;7.462;2023-06-10T03:04:03;13.63;;;11.38;;
79064;SDS011;68469;51.502;7.462;2023-06-10T03:06:30;13.43;;;11.05;;
79064;SDS011;68469;51.502;7.462;2023-06-10T03:08:58;13.93;;;12.52;;
79064;SDS011;68469;51.502;7.462;2023-06-10T03:11:24;13.35;;;11.77;;
79064;SDS011;68469;51.502;7.462;2023-06-10T03:13:50;16.92;;;12.38;;
79064;SDS011;68469;51.502;7.462;2023-06-10T03:16:17;11.57;;;10.43;;
79064;SDS011;68469;51.502;7.462;2023-06-10T03:18:43;17.45;;;11.55;;
79064;SDS011;68469;51.502;7.462;2023-06-10T03:21:09;15.07;;;13.27;;
79064;SDS011;68469;51.502;7.462;2023-06-10T03:23:34;14.90;;;13.32;;
79064;SDS011;68469;51.502;7.462;2023-06-10T03:26:00;13.27;;;11.95;;
79064;SDS011;68469;51.502;7.462;2023-06-10T03:28:26;15.15;;;11.52;;
79064;SDS011;68469;51.502;7.462;2023-06-10T03:30:52;13.95;;;12.50;;
79064;SDS011;68469;51.502;7.462;2023-06-10T03:33:18;16.80;;;12.90;;
79064;SDS011;68469;51.502;7.462;2023-06-10T03:35:43;14.55;;;12.50;;
79064;SDS011;68469;51.502;7.462;2023-06-10T03:38:09;17.15;;;13.40;;
79064;SDS011;68469;51.502;7.462;2023-06-10T03:40:35;16.00;;;13.10;;
79064;SDS011;68469;51.502;7.462;2023-06-10T03:43:00;14.30;;;12.85;;
79064;SDS011;68469;51.502;7.462;2023-06-10T03:45:26;16.25;;;12.82;;
79064;SDS011;68469;51.502;7.462;2023-06-10T03:47:53;15.35;;;12.55;;
79064;SDS011;68469;51.502;7.462;2023-06-10T03:50:18;15.70;;;13.27;;
79064;SDS011;68469;51.502;7.462;2023-06-10T03:52:44;14.00;;;12.65;;
79064;SDS011;68469;51.502;7.462;2023-06-10T03:55:11;17.58;;;14.20;;
79064;SDS011;68469;51.502;7.462;2023-06-10T03:57:38;15.40;;;13.68;;
79064;SDS011;68469;51.502;7.462;2023-06-10T04:00:04;15.65;;;13.13;;
79064;SDS011;68469;51.502;7.462;2023-06-10T04:02:35;13.98;;;12.48;;
79064;SDS011;68469;51.502;7.462;2023-06-10T04:05:01;14.45;;;12.95;;
79064;SDS011;68469;51.502;7.462;2023-06-10T04:07:27;16.88;;;13.13;;
79064;SDS011;68469;51.502;7.462;2023-06-10T04:09:53;14.68;;;13.18;;
79064;SDS011;68469;51.502;7.462;2023-06-10T04:12:19;18.20;;;13.25;;
79064;SDS011;68469;51.502;7.462;2023-06-10T04:14:44;16.88;;;13.35;;
79064;SDS011;68469;51.502;7.462;2023-06-10T04:17:10;15.75;;;12.98;;
79064;SDS011;68469;51.502;7.462;2023-06-10T04:19:35;13.63;;;12.10;;
79064;SDS011;68469;51.502;7.462;2023-06-10T04:22:01;13.60;;;12.15;;
79064;SDS011;68469;51.502;7.462;2023-06-10T04:24:30;13.68;;;11.95;;
79064;SDS011;68469;51.502;7.462;2023-06-10T04:26:55;13.77;;;11.75;;
79064;SDS011;68469;51.502;7.462;2023-06-10T04:29:21;13.63;;;11.23;;
79064;SDS011;68469;51.502;7.462;2023-06-10T04:31:47;11.70;;;10.50;;
79064;SDS011;68469;51.502;7.462;2023-06-10T04:34:13;16.13;;;11.75;;
79064;SDS011;68469;51.502;7.462;2023-06-10T04:36:39;12.75;;;11.43;;
79064;SDS011;68469;51.502;7.462;2023-06-10T04:39:05;14.85;;;10.52;;
79064;SDS011;68469;51.502;7.462;2023-06-10T04:41:30;12.80;;;11.50;;
79064;SDS011;68469;51.502;7.462;2023-06-10T04:43:56;13.85;;;10.63;;
79064;SDS011;68469;51.502;7.462;2023-06-10T04:46:22;15.23;;;10.88;;
79064;SDS011;68469;51.502;7.462;2023-06-10T04:48:49;12.88;;;10.77;;
79064;SDS011;68469;51.502;7.462;2023-06-10T04:51:15;13.80;;;10.60;;
79064;SDS011;68469;51.502;7.462;2023-06-10T04:53:41;13.52;;;10.80;;
79064;SDS011;68469;51.502;7.462;2023-06-10T04:56:07;13.10;;;10.45;;
79064;SDS011;68469;51.502;7.462;2023-06-10T04:58:33;13.05;;;10.98;;
79064;SDS011;68469;51.502;7.462;2023-06-10T05:00:58;14.32;;;10.65;;
79064;SDS011;68469;51.502;7.462;2023-06-10T05:03:24;12.45;;;9.73;;
79064;SDS011;68469;51.502;7.462;2023-06-10T05:05:51;11.45;;;9.15;;
79064;SDS011;68469;51.502;7.462;2023-06-10T05:08:17;14.50;;;9.98;;
79064;SDS011;68469;51.502;7.462;2023-06-10T05:10:43;10.95;;;9.60;;
79064;SDS011;68469;51.502;7.462;2023-06-10T05:13:09;13.50;;;9.75;;
79064;SDS011;68469;51.502;7.462;2023-06-10T05:15:34;10.40;;;9.27;;
79064;SDS011;68469;51.502;7.462;2023-06-10T05:18:00;11.02;;;8.25;;
79064;SDS011;68469;51.502;7.462;2023-06-10T05:20:27;10.38;;;8.82;;
79064;SDS011;68469;51.502;7.462;2023-06-10T05:22:54;9.82;;;8.18;;
79064;SDS011;68469;51.502;7.462;2023-06-10T05:25:19;9.30;;;7.60;;
79064;SDS011;68469;51.502;7.462;2023-06-10T05:27:45;11.48;;;8.30;;
79064;SDS011;68469;51.502;7.462;2023-06-10T05:30:10;10.73;;;8.15;;
79064;SDS011;68469;51.502;7.462;2023-06-10T05:32:36;9.30;;;7.95;;
79064;SDS011;68469;51.502;7.462;2023-06-10T05:35:02;11.27;;;7.68;;
79064;SDS011;68469;51.502;7.462;2023-06-10T05:37:29;10.80;;;8.00;;
79064;SDS011;68469;51.502;7.462;2023-06-10T05:39:55;9.32;;;8.13;;
79064;SDS011;68469;51.502;7.462;2023-06-10T05:42:20;13.13;;;7.95;;
79064;SDS011;68469;51.502;7.462;2023-06-10T05:44:46;9.73;;;7.93;;
79064;SDS011;68469;51.502;7.462;2023-06-10T05:47:12;9.82;;;7.88;;
79064;SDS011;68469;51.502;7.462;2023-06-10T05:49:37;10.45;;;6.90;;
79064;SDS011;68469;51.502;7.462;2023-06-10T05:52:03;8.85;;;7.63;;
79064;SDS011;68469;51.502;7.462;2023-06-10T05:54:29;11.02;;;8.00;;
79064;SDS011;68469;51.502;7.462;2023-06-10T05:56:55;10.43;;;7.95;;
79064;SDS011;68469;51.502;7.462;2023-06-10T05:59:20;8.73;;;7.35;;
79064;SDS011;68469;51.502;7.462;2023-06-10T06:01:47;12.05;;;8.00;;
79064;SDS011;68469;51.502;7.462;2023-06-10T06:04:14;9.32;;;7.95;;
79064;SDS011;68469;51.502;7.462;2023-06-10T06:06:39;11.35;;;7.22;;
79064;SDS011;68469;51.502;7.462;2023-06-10T06:09:05;10.10;;;7.07;;
79064;SDS011;68469;51.502;7.462;2023-06-10T06:11:31;9.48;;;7.32;;
79064;SDS011;68469;51.502;7.462;2023-06-10T06:13:56;9.73;;;7.78;;
79064;SDS011;68469;51.502;7.462;2023-06-10T06:16:22;9.88;;;7.88;;
79064;SDS011;68469;51.502;7.462;2023-06-10T06:18:48;9.80;;;7.47;;
79064;SDS011;68469;51.502;7.462;2023-06-10T06:21:13;12.07;;;7.20;;
79064;SDS011;68469;51.502;7.462;2023-06-10T06:23:39;11.45;;;7.40;;
79064;SDS011;68469;51.502;7.462;2023-06-10T06:26:05;8.40;;;7.35;;
79064;SDS011;68469;51.502;7.462;2023-06-10T06:28:30;9.43;;;7.57;;
79064;SDS011;68469;51.502;7.462;2023-06-10T06:30:56;16.17;;;7.22;;
79064;SDS011;68469;51.502;7.462;2023-06-10T06:33:22;10.85;;;7.25;;
79064;SDS011;68469;51.502;7.462;2023-06-10T06:35:47;8.93;;;6.68;;
79064;SDS011;68469;51.502;7.462;2023-06-10T06:38:13;10.30;;;7.60;;
79064;SDS011;68469;51.502;7.462;2023-06-10T06:40:39;8.98;;;6.65;;
79064;SDS011;68469;51.502;7.462;2023-06-10T06:43:04;8.40;;;5.93;;
79064;SDS011;68469;51.502;7.462;2023-06-10T06:45:30;7.10;;;6.30;;
79064;SDS011;68469;51.502;7.462;2023-06-10T06:47:56;7.85;;;5.80;;
79064;SDS011;68469;51.502;7.462;2023-06-10T06:50:21;10.50;;;6.72;;
79064;SDS011;68469;51.502;7.462;2023-06-10T06:52:47;9.75;;;5.93;;
79064;SDS011;68469;51.502;7.462;2023-06-10T06:55:13;7.88;;;5.60;;
79064;SDS011;68469;51.502;7.462;2023-06-10T06:57:38;12.02;;;7.10;;
79064;SDS011;68469;51.502;7.462;2023-06-10T07:00:04;9.48;;;6.22;;
79064;SDS011;68469;51.502;7.462;2023-06-10T07:02:31;10.68;;;5.78;;
79064;SDS011;68469;51.502;7.462;2023-06-10T07:04:58;9.52;;;6.47;;
79064;SDS011;68469;51.502;7.462;2023-06-10T07:07:24;7.53;;;5.72;;
79064;SDS011;68469;51.502;7.462;2023-06-10T07:09:49;7.22;;;5.78;;
79064;SDS011;68469;51.502;7.462;2023-06-10T07:12:15;7.07;;;5.07;;
79064;SDS011;68469;51.502;7.462;2023-06-10T07:14:41;8.57;;;5.43;;
79064;SDS011;68469;51.502;7.462;2023-06-10T07:17:06;10.43;;;6.40;;
79064;SDS011;68469;51.502;7.462;2023-06-10T07:19:32;13.75;;;5.93;;
79064;SDS011;68469;51.502;7.462;2023-06-10T07:21:57;9.35;;;5.55;;
79064;SDS011;68469;51.502;7.462;2023-06-10T07:24:23;11.73;;;5.38;;
79064;SDS011;68469;51.502;7.462;2023-06-10T07:26:49;10.98;;;4.78;;
79064;SDS011;68469;51.502;7.462;2023-06-10T07:29:15;5.40;;;4.20;;
79064;SDS011;68469;51.502;7.462;2023-06-10T07:31:41;6.32;;;4.78;;
79064;SDS011;68469;51.502;7.462;2023-06-10T07:34:06;11.25;;;4.85;;
79064;SDS011;68469;51.502;7.462;2023-06-10T07:36:32;6.53;;;4.72;;
79064;SDS011;68469;51.502;7.462;2023-06-10T07:38:58;8.25;;;5.15;;
79064;SDS011;68469;51.502;7.462;2023-06-10T07:41:24;7.65;;;4.40;;
79064;SDS011;68469;51.502;7.462;2023-06-10T07:43:50;6.95;;;5.82;;
79064;SDS011;68469;51.502;7.462;2023-06-10T07:46:20;8.52;;;4.78;;
79064;SDS011;68469;51.502;7.462;2023-06-10T07:48:46;7.93;;;4.85;;
79064;SDS011;68469;51.502;7.462;2023-06-10T07:51:12;10.25;;;5.55;;
79064;SDS011;68469;51.502;7.462;2023-06-10T07:53:38;7.55;;;4.57;;
79064;SDS011;68469;51.502;7.462;2023-06-10T07:56:03;8.82;;;4.97;;
79064;SDS011;68469;51.502;7.462;2023-06-10T07:58:29;7.38;;;4.30;;
79064;SDS011;68469;51.502;7.462;2023-06-10T08:00:54;5.18;;;3.90;;
79064;SDS011;68469;51.502;7.462;2023-06-10T08:03:20;7.65;;;4.85;;
79064;SDS011;68469;51.502;7.462;2023-06-10T08:05:46;8.68;;;4.47;;
79064;SDS011;68469;51.502;7.462;2023-06-10T08:08:12;9.05;;;4.13;;
79064;SDS011;68469;51.502;7.462;2023-06-10T08:10:38;6.63;;;4.30;;
79064;SDS011;68469;51.502;7.462;2023-06-10T08:13:04;10.30;;;4.80;;
79064;SDS011;68469;51.502;7.462;2023-06-10T08:15:29;9.73;;;4.03;;
79064;SDS011;68469;51.502;7.462;2023-06-10T08:17:55;6.32;;;4.30;;
79064;SDS011;68469;51.502;7.462;2023-06-10T08:20:21;6.95;;;4.20;;
79064;SDS011;68469;51.502;7.462;2023-06-10T08:22:47;5.18;;;3.70;;
79064;SDS011;68469;51.502;7.462;2023-06-10T08:25:12;7.18;;;4.57;;
79064;SDS011;68469;51.502;7.462;2023-06-10T08:27:38;7.82;;;4.65;;
79064;SDS011;68469;51.502;7.462;2023-06-10T08:30:04;9.63;;;4.60;;
79064;SDS011;68469;51.502;7.462;2023-06-10T08:32:30;8.43;;;4.40;;
79064;SDS011;68469;51.502;7.462;2023-06-10T08:34:56;10.10;;;4.38;;
79064;SDS011;68469;51.502;7.462;2023-06-10T08:37:21;9.90;;;4.32;;
79064;SDS011;68469;51.502;7.462;2023-06-10T08:39:47;9.75;;;4.10;;
79064;SDS011;68469;51.502;7.462;2023-06-10T08:42:23;6.35;;;4.05;;
79064;SDS011;68469;51.502;7.462;2023-06-10T08:44:54;7.35;;;4.95;;
79064;SDS011;68469;51.502;7.462;2023-06-10T08:47:22;9.00;;;4.18;;
79064;SDS011;68469;51.502;7.462;2023-06-10T08:49:49;5.70;;;4.25;;
79064;SDS011;68469;51.502;7.462;2023-06-10T08:52:16;6.47;;;4.07;;
79064;SDS011;68469;51.502;7.462;2023-06-10T08:54:52;9.80;;;4.00;;
79064;SDS011;68469;51.502;7.462;2023-06-10T08:57:19;6.93;;;4.22;;
79064;SDS011;68469;51.502;7.462;2023-06-10T08:59:46;7.32;;;3.95;;
79064;SDS011;68469;51.502;7.462;2023-06-10T09:02:13;8.30;;;4.25;;
79064;SDS011;68469;51.502;7.462;2023-06-10T09:04:42;7.85;;;4.18;;
79064;SDS011;68469;51.502;7.462;2023-06-10T09:07:09;7.45;;;4.43;;
79064;SDS011;68469;51.502;7.462;2023-06-10T09:09:35;7.13;;;4.00;;
79064;SDS011;68469;51.502;7.462;2023-06-10T09:12:01;8.68;;;3.90;;
79064;SDS011;68469;51.502;7.462;2023-06-10T09:14:28;5.95;;;4.20;;
79064;SDS011;68469;51.502;7.462;2023-06-10T09:16:53;9.68;;;4.20;;
79064;SDS011;68469;51.502;7.462;2023-06-10T09:19:22;7.60;;;3.88;;
79064;SDS011;68469;51.502;7.462;2023-06-10T09:21:49;7.47;;;4.05;;
79064;SDS011;68469;51.502;7.462;2023-06-10T09:24:15;6.07;;;3.95;;
79064;SDS011;68469;51.502;7.462;2023-06-10T09:26:41;6.95;;;3.60;;
79064;SDS011;68469;51.502;7.462;2023-06-10T09:29:08;7.82;;;4.10;;
79064;SDS011;68469;51.502;7.462;2023-06-10T09:31:35;6.53;;;3.55;;
79064;SDS011;68469;51.502;7.462;2023-06-10T09:34:06;4.75;;;3.35;;
79064;SDS011;68469;51.502;7.462;2023-06-10T09:36:36;11.00;;;4.40;;
79064;SDS011;68469;51.502;7.462;2023-06-10T09:39:03;5.90;;;3.58;;
79064;SDS011;68469;51.502;7.462;2023-06-10T09:41:33;6.10;;;4.00;;
79064;SDS011;68469;51.502;7.462;2023-06-10T09:44:00;6.55;;;3.55;;
79064;SDS011;68469;51.502;7.462;2023-06-10T09:46:29;4.65;;;3.88;;
79064;SDS011;68469;51.502;7.462;2023-06-10T09:48:57;9.90;;;3.90;;
79064;SDS011;68469;51.502;7.462;2023-06-10T09:51:23;6.20;;;3.70;;
79064;SDS011;68469;51.502;7.462;2023-06-10T09:53:50;6.45;;;3.65;;
79064;SDS011;68469;51.502;7.462;2023-06-10T09:56:17;8.25;;;4.05;;
79064;SDS011;68469;51.502;7.462;2023-06-10T09:58:44;5.97;;;4.22;;
79064;SDS011;68469;51.502;7.462;2023-06-10T10:01:11;10.85;;;4.03;;
79064;SDS011;68469;51.502;7.462;2023-06-10T10:03:45;6.65;;;3.75;;
79064;SDS011;68469;51.502;7.462;2023-06-10T10:06:12;7.57;;;3.97;;
79064;SDS011;68469;51.502;7.462;2023-06-10T10:08:39;10.20;;;3.88;;
79064;SDS011;68469;51.502;7.462;2023-06-10T10:11:05;5.78;;;4.32;;
79064;SDS011;68469;51.502;7.462;2023-06-10T10:13:32;8.88;;;3.70;;
79064;SDS011;68469;51.502;7.462;2023-06-10T10:16:01;6.45;;;4.28;;
79064;SDS011;68469;51.502;7.462;2023-06-10T10:18:35;7.07;;;3.92;;
79064;SDS011;68469;51.502;7.462;2023-06-10T10:21:04;6.95;;;4.30;;
79064;SDS011;68469;51.502;7.462;2023-06-10T10:26:27;6.25;;;3.78;;
79064;SDS011;68469;51.502;7.462;2023-06-10T10:29:20;10.85;;;4.45;;
79064;SDS011;68469;51.502;7.462;2023-06-10T10:31:55;5.82;;;4.35;;
79064;SDS011;68469;51.502;7.462;2023-06-10T10:34:29;6.85;;;4.38;;
79064;SDS011;68469;51.502;7.462;2023-06-10T10:37:01;9.32;;;4.75;;
79064;SDS011;68469;51.502;7.462;2023-06-10T10:39:28;6.45;;;3.83;;
79064;SDS011;68469;51.502;7.462;2023-06-10T10:41:55;4.90;;;4.10;;
79064;SDS011;68469;51.502;7.462;2023-06-10T10:44:21;16.48;;;4.50;;
79064;SDS011;68469;51.502;7.462;2023-06-10T10:46:49;8.48;;;4.13;;
79064;SDS011;68469;51.502;7.462;2023-06-10T10:49:16;5.15;;;3.80;;
79064;SDS011;68469;51.502;7.462;2023-06-10T10:51:55;7.72;;;3.60;;
79064;SDS011;68469;51.502;7.462;2023-06-10T10:57:15;7.72;;;3.83;;
79064;SDS011;68469;51.502;7.462;2023-06-10T10:59:52;5.22;;;3.78;;
79064;SDS011;68469;51.502;7.462;2023-06-10T11:02:35;5.57;;;3.70;;
79064;SDS011;68469;51.502;7.462;2023-06-10T11:05:03;8.40;;;3.40;;
79064;SDS011;68469;51.502;7.462;2023-06-10T11:07:33;5.15;;;4.03;;
79064;SDS011;68469;51.502;7.462;2023-06-10T11:12:47;6.32;;;3.65;;
79064;SDS011;68469;51.502;7.462;2023-06-10T11:15:19;7.60;;;4.07;;
79064;SDS011;68469;51.502;7.462;2023-06-10T11:31:23;7.28;;;3.70;;
79064;SDS011;68469;51.502;7.462;2023-06-10T11:33:54;5.88;;;3.78;;
79064;SDS011;68469;51.502;7.462;2023-06-10T11:36:25;7.00;;;3.55;;
79064;SDS011;68469;51.502;7.462;2023-06-10T11:38:54;6.43;;;3.90;;
79064;SDS011;68469;51.502;7.462;2023-06-10T11:41:33;11.50;;;4.00;;
79064;SDS011;68469;51.502;7.462;2023-06-10T11:44:03;6.28;;;3.55;;
79064;SDS011;68469;51.502;7.462;2023-06-10T11:46:32;5.45;;;3.70;;
79064;SDS011;68469;51.502;7.462;2023-06-10T11:48:58;4.25;;;3.10;;
79064;SDS011;68469;51.502;7.462;2023-06-10T11:51:25;8.27;;;3.22;;
79064;SDS011;68469;51.502;7.462;2023-06-10T11:53:53;7.78;;;3.40;;
79064;SDS011;68469;51.502;7.462;2023-06-10T11:56:20;7.85;;;3.75;;
79064;SDS011;68469;51.502;7.462;2023-06-10T11:58:49;5.28;;;3.38;;
79064;SDS011;68469;51.502;7.462;2023-06-10T12:01:29;6.75;;;3.28;;
79064;SDS011;68469;51.502;7.462;2023-06-10T12:03:57;5.05;;;3.65;;
79064;SDS011;68469;51.502;7.462;2023-06-10T12:06:24;4.18;;;3.25;;
79064;SDS011;68469;51.502;7.462;2023-06-10T12:08:49;5.65;;;3.25;;
79064;SDS011;68469;51.502;7.462;2023-06-10T12:11:15;10.35;;;3.22;;
79064;SDS011;68469;51.502;7.462;2023-06-10T12:13:47;5.05;;;3.20;;
79064;SDS011;68469;51.502;7.462;2023-06-10T12:16:14;5.45;;;3.67;;
79064;SDS011;68469;51.502;7.462;2023-06-10T12:18:42;4.47;;;3.20;;
79064;SDS011;68469;51.502;7.462;2023-06-10T12:21:20;3.50;;;2.80;;
79064;SDS011;68469;51.502;7.462;2023-06-10T12:26:35;5.00;;;3.20;;
79064;SDS011;68469;51.502;7.462;2023-06-10T12:29:02;3.45;;;2.92;;
79064;SDS011;68469;51.502;7.462;2023-06-10T12:31:59;4.72;;;3.08;;
79064;SDS011;68469;51.502;7.462;2023-06-10T12:36:54;5.18;;;3.33;;
79064;SDS011;68469;51.502;7.462;2023-06-10T12:39:20;6.88;;;3.50;;
79064;SDS011;68469;51.502;7.462;2023-06-10T12:41:49;4.30;;;2.95;;
79064;SDS011;68469;51.502;7.462;2023-06-10T12:44:16;5.75;;;3.38;;
79064;SDS011;68469;51.502;7.462;2023-06-10T12:46:42;5.07;;;3.60;;
79064;SDS011;68469;51.502;7.462;2023-06-10T12:49:08;6.65;;;3.80;;
79064;SDS011;68469;51.502;7.462;2023-06-10T12:51:43;5.32;;;4.13;;
79064;SDS011;68469;51.502;7.462;2023-06-10T12:54:09;5.95;;;4.25;;
79064;SDS011;68469;51.502;7.462;2023-06-10T12:56:35;6.82;;;3.85;;
79064;SDS011;68469;51.502;7.462;2023-06-10T12:59:01;7.30;;;4.30;;
79064;SDS011;68469;51.502;7.462;2023-06-10T13:01:27;6.85;;;4.10;;
79064;SDS011;68469;51.502;7.462;2023-06-10T13:03:53;7.75;;;4.57;;
79064;SDS011;68469;51.502;7.462;2023-06-10T13:06:19;7.78;;;4.30;;
79064;SDS011;68469;51.502;7.462;2023-06-10T13:08:45;6.03;;;4.38;;
79064;SDS011;68469;51.502;7.462;2023-06-10T13:11:12;5.45;;;4.05;;
79064;SDS011;68469;51.502;7.462;2023-06-10T13:13:37;5.38;;;4.78;;
79064;SDS011;68469;51.502;7.462;2023-06-10T13:16:03;7.57;;;4.82;;
79064;SDS011;68469;51.502;7.462;2023-06-10T13:18:29;6.60;;;4.25;;
79064;SDS011;68469;51.502;7.462;2023-06-10T13:20:54;7.75;;;4.30;;
79064;SDS011;68469;51.502;7.462;2023-06-10T13:23:20;6.05;;;4.13;;
79064;SDS011;68469;51.502;7.462;2023-06-10T13:25:46;6.78;;;4.80;;
79064;SDS011;68469;51.502;7.462;2023-06-10T13:28:12;10.60;;;5.10;;
79064;SDS011;68469;51.502;7.462;2023-06-10T13:30:38;6.68;;;4.55;;
79064;SDS011;68469;51.502;7.462;2023-06-10T13:33:03;6.15;;;4.30;;
79064;SDS011;68469;51.502;7.462;2023-06-10T13:35:29;5.68;;;4.43;;
79064;SDS011;68469;51.502;7.462;2023-06-10T13:37:54;7.25;;;4.85;;
79064;SDS011;68469;51.502;7.462;2023-06-10T13:40:20;7.32;;;4.40;;
79064;SDS011;68469;51.502;7.462;2023-06-10T13:42:47;7.75;;;4.20;;
79064;SDS011;68469;51.502;7.462;2023-06-10T13:45:15;5.97;;;4.63;;
79064;SDS011;68469;51.502;7.462;2023-06-10T13:47:42;5.65;;;4.28;;
79064;SDS011;68469;51.502;7.462;2023-06-10T13:50:07;6.18;;;4.65;;
79064;SDS011;68469;51.502;7.462;2023-06-10T13:52:33;7.88;;;4.40;;
79064;SDS011;68469;51.502;7.462;2023-06-10T13:54:59;11.40;;;4.97;;
79064;SDS011;68469;51.502;7.462;2023-06-10T13:57:25;7.28;;;4.47;;
79064;SDS011;68469;51.502;7.462;2023-06-10T13:59:50;9.10;;;4.70;;
79064;SDS011;68469;51.502;7.462;2023-06-10T14:02:16;6.07;;;4.60;;
79064;SDS011;68469;51.502;7.462;2023-06-10T14:04:42;6.97;;;4.50;;
79064;SDS011;68469;51.502;7.462;2023-06-10T14:07:07;6.90;;;3.97;;
79064;SDS011;68469;51.502;7.462;2023-06-10T14:09:33;4.80;;;4.22;;
79064;SDS011;68469;51.502;7.462;2023-06-10T14:11:59;6.90;;;4.30;;
79064;SDS011;68469;51.502;7.462;2023-06-10T14:14:24;6.55;;;4.43;;
79064;SDS011;68469;51.502;7.462;2023-06-10T14:16:50;6.75;;;5.30;;
79064;SDS011;68469;51.502;7.462;2023-06-10T14:19:16;8.85;;;4.65;;
79064;SDS011;68469;51.502;7.462;2023-06-10T14:21:41;9.70;;;4.28;;
79064;SDS011;68469;51.502;7.462;2023-06-10T14:24:07;5.75;;;4.20;;
79064;SDS011;68469;51.502;7.462;2023-06-10T14:26:32;7.78;;;4.68;;
79064;SDS011;68469;51.502;7.462;2023-06-10T14:28:58;7.53;;;4.43;;
79064;SDS011;68469;51.502;7.462;2023-06-10T14:31:23;5.53;;;3.85;;
79064;SDS011;68469;51.502;7.462;2023-06-10T14:33:49;7.45;;;4.47;;
79064;SDS011;68469;51.502;7.462;2023-06-10T14:36:15;6.90;;;4.47;;
79064;SDS011;68469;51.502;7.462;2023-06-10T14:38:41;6.57;;;4.53;;
79064;SDS011;68469;51.502;7.462;2023-06-10T14:41:06;7.45;;;4.13;;
79064;SDS011;68469;51.502;7.462;2023-06-10T14:43:32;7.38;;;4.40;;
79064;SDS011;68469;51.502;7.462;2023-06-10T14:45:57;7.03;;;4.40;;
79064;SDS011;68469;51.502;7.462;2023-06-10T14:48:23;7.38;;;4.47;;
79064;SDS011;68469;51.502;7.462;2023-06-10T14:50:48;4.72;;;3.90;;
79064;SDS011;68469;51.502;7.462;2023-06-10T14:53:17;7.60;;;4.38;;
79064;SDS011;68469;51.502;7.462;2023-06-10T14:55:43;5.70;;;4.55;;
79064;SDS011;68469;51.502;7.462;2023-06-10T14:58:09;5.35;;;4.35;;
79064;SDS011;68469;51.502;7.462;2023-06-10T15:00:35;7.20;;;4.55;;
79064;SDS011;68469;51.502;7.462;2023-06-10T15:03:00;6.50;;;4.60;;
79064;SDS011;68469;51.502;7.462;2023-06-10T15:05:26;6.03;;;4.18;;
79064;SDS011;68469;51.502;7.462;2023-06-10T15:07:51;7.68;;;4.28;;